Kalvesta, Kansas
Current Conditions -  °F | °C
As of 12:52 PM on Saturday 20 Dec 2014 (Local Time) from KDDC Reporting Station
Haze Haze  
Wind Chill: 29°   Ceiling: 300
Heat Index: 37°   Visibility: 4mi
Dew Point: 34°   Wind: 13mph
Humidity: 89%   Direction: 200°SSW
Pressure: 30.05"   Gusts: NA
Location:  37.8692°N, 100.332°W
Report Text: KDDC 201852Z AUTO 20011KT 4SM BR OVC003 03/01 A3005 RMK AO2 SLP190 T00280011
Loading
Personal Weather Stations






























Interactive Weather Map New forecast layout! Learn more

10-Day Weather Forecast

Advertisements
Track Severe Weather on mobile